Terminal Aerodrome Forecast
Issued by NWS

Home | Current Version | Previous Version | Text Only | Print | Product List | Glossary On
Versions: 1 2 3 4 5 6 7 8 9 10 11 12 13 14 15 16 17
000
FTUS41 KPBZ 290520
TAFFKL
TAF
KFKL 290520Z 2906/3006 18008KT P6SM BKN150
     FM291500 21015G25KT P6SM BKN040
     FM292100 22015G25KT P6SM VCTS BKN050CB
     FM300000 21008KT P6SM BKN200
      AMD LTD TO CLD VIS AND WIND=

USA.gov is the U.S. government's official web portal to all federal, state and local government web resources and services.